createdAt,value
2022-12-20T00:00:24.704Z,0.09
2022-12-20T00:02:51.062Z,0.12
2022-12-20T00:05:17.422Z,0.11
2022-12-20T00:07:43.749Z,0.11
2022-12-20T00:10:10.077Z,0.11
2022-12-20T00:15:08.026Z,0.06
2022-12-20T00:17:34.531Z,0.10
2022-12-20T00:20:01.021Z,0.12
2022-12-20T00:22:27.352Z,0.11
2022-12-20T00:24:53.689Z,0.13
2022-12-20T00:27:20.060Z,0.02
2022-12-20T00:29:46.391Z,0.08
2022-12-20T00:32:12.772Z,0.05
2022-12-20T00:34:39.291Z,0.03
2022-12-20T00:37:05.693Z,0.08
2022-12-20T00:39:34.131Z,0.11
2022-12-20T00:42:00.477Z,0.13
2022-12-20T00:44:28.590Z,0.16
2022-12-20T00:46:54.976Z,0.14
2022-12-20T00:49:21.332Z,0.10
2022-12-20T00:51:47.661Z,0.14
2022-12-20T00:54:14.007Z,0.09
2022-12-20T00:56:40.341Z,0.17
2022-12-20T00:59:06.711Z,0.13
2022-12-20T01:01:33.301Z,0.13
2022-12-20T01:03:59.752Z,0.11
2022-12-20T01:06:26.208Z,0.13
2022-12-20T01:08:52.571Z,0.17
2022-12-20T01:11:18.901Z,0.17
2022-12-20T01:13:45.252Z,0.19
2022-12-20T01:16:11.674Z,0.19
2022-12-20T01:18:38.059Z,0.28
2022-12-20T01:21:04.394Z,0.29
2022-12-20T01:23:30.749Z,0.36
2022-12-20T01:25:57.081Z,0.38
2022-12-20T01:28:23.429Z,0.40
2022-12-20T01:30:49.751Z,0.39
2022-12-20T01:33:16.081Z,0.44
2022-12-20T01:35:42.395Z,0.46
2022-12-20T01:38:08.734Z,0.45
2022-12-20T01:40:35.073Z,0.41
2022-12-20T01:43:01.406Z,0.51
2022-12-20T01:45:27.769Z,0.48
2022-12-20T01:47:54.101Z,0.44
2022-12-20T01:50:20.485Z,0.50
2022-12-20T01:52:46.947Z,0.40
2022-12-20T01:55:13.281Z,0.42
2022-12-20T01:57:39.690Z,0.43
2022-12-20T02:00:06.028Z,0.41
2022-12-20T02:02:32.507Z,0.46
2022-12-20T02:04:58.937Z,0.50
2022-12-20T02:07:25.264Z,0.44
2022-12-20T02:09:51.613Z,0.45
2022-12-20T02:12:17.947Z,0.46
2022-12-20T02:14:44.325Z,0.45
2022-12-20T02:17:11.104Z,0.43
2022-12-20T02:19:37.487Z,0.47
2022-12-20T02:22:03.876Z,0.45
2022-12-20T02:24:30.217Z,0.48
2022-12-20T02:26:56.827Z,0.49
2022-12-20T02:29:23.158Z,0.50
2022-12-20T02:31:49.567Z,0.49
2022-12-20T02:34:16.002Z,0.53
2022-12-20T02:36:42.461Z,0.51
2022-12-20T02:39:08.783Z,0.50
2022-12-20T02:41:35.270Z,0.56
2022-12-20T02:44:20.387Z,0.54
2022-12-20T02:46:46.737Z,0.59
2022-12-20T02:49:13.095Z,0.57
2022-12-20T02:51:39.455Z,0.53
2022-12-20T02:54:05.788Z,0.59
2022-12-20T02:56:32.120Z,0.56
2022-12-20T02:58:58.436Z,0.55
2022-12-20T03:01:24.939Z,0.49
2022-12-20T03:03:51.456Z,0.52
2022-12-20T03:06:17.851Z,0.50
2022-12-20T03:08:44.237Z,0.50
2022-12-20T03:11:10.723Z,0.45
2022-12-20T03:13:37.040Z,0.49
2022-12-20T03:16:03.413Z,0.50
2022-12-20T03:18:29.743Z,0.55
2022-12-20T03:20:56.108Z,0.53
2022-12-20T03:23:22.447Z,0.51
2022-12-20T03:25:48.808Z,0.51
2022-12-20T03:28:15.207Z,0.58
2022-12-20T03:30:41.564Z,0.64
2022-12-20T03:33:07.892Z,0.63
2022-12-20T03:35:34.222Z,0.66
2022-12-20T03:38:00.555Z,0.66
2022-12-20T03:40:26.912Z,0.72
2022-12-20T03:42:53.279Z,0.71
2022-12-20T03:45:19.615Z,0.68
2022-12-20T03:47:45.972Z,0.69
2022-12-20T03:50:12.353Z,0.72
2022-12-20T03:52:38.689Z,0.75
2022-12-20T03:55:05.047Z,0.74
2022-12-20T03:57:31.378Z,0.74
2022-12-20T03:59:57.730Z,0.76
2022-12-20T04:02:24.220Z,0.73
2022-12-20T04:04:50.649Z,0.73
2022-12-20T04:07:16.982Z,0.71
2022-12-20T04:09:43.309Z,0.67
2022-12-20T04:12:09.626Z,0.73
2022-12-20T04:14:37.519Z,0.69
2022-12-20T04:17:03.880Z,0.71
2022-12-20T04:19:30.189Z,0.74
2022-12-20T04:22:04.811Z,0.74
2022-12-20T04:24:32.203Z,0.67
2022-12-20T04:26:58.535Z,0.72
2022-12-20T04:29:24.947Z,0.72
2022-12-20T04:31:51.365Z,0.70
2022-12-20T04:34:17.757Z,0.67
2022-12-20T04:36:44.094Z,0.71
2022-12-20T04:39:10.442Z,0.63
2022-12-20T04:41:36.837Z,0.71
2022-12-20T04:44:03.155Z,0.59
2022-12-20T04:46:29.586Z,0.61
2022-12-20T04:48:58.405Z,0.62
2022-12-20T04:51:25.859Z,0.62
2022-12-20T04:53:52.202Z,0.63
2022-12-20T04:56:18.555Z,0.68
2022-12-20T04:58:44.927Z,0.65
2022-12-20T05:01:11.258Z,0.63
2022-12-20T05:03:37.803Z,0.68
2022-12-20T05:06:04.195Z,0.64
2022-12-20T05:08:30.704Z,0.70
2022-12-20T05:10:57.089Z,0.73
2022-12-20T05:13:23.459Z,0.72
2022-12-20T05:15:50.451Z,0.66
2022-12-20T05:18:16.848Z,0.70
2022-12-20T05:20:43.173Z,0.72
2022-12-20T05:23:28.294Z,0.70
2022-12-20T05:26:13.232Z,0.73
2022-12-20T05:28:39.641Z,0.68
2022-12-20T05:31:06.027Z,0.73
2022-12-20T05:33:34.362Z,0.81
2022-12-20T05:36:00.855Z,0.80
2022-12-20T05:38:27.197Z,0.77
2022-12-20T05:40:53.595Z,0.74
2022-12-20T05:43:20.079Z,0.77
2022-12-20T05:45:46.605Z,0.79
2022-12-20T05:48:12.916Z,0.77
2022-12-20T05:50:39.245Z,0.79
2022-12-20T05:53:11.335Z,0.84
2022-12-20T05:55:40.510Z,0.89
2022-12-20T05:58:07.066Z,0.79
2022-12-20T06:00:33.685Z,0.82
2022-12-20T06:03:00.198Z,0.80
2022-12-20T06:05:26.719Z,0.81
2022-12-20T06:07:53.091Z,0.83
2022-12-20T06:10:19.488Z,0.88
2022-12-20T06:12:45.814Z,0.81
2022-12-20T06:15:13.471Z,0.85
2022-12-20T06:17:39.798Z,0.85
2022-12-20T06:20:06.153Z,0.83
2022-12-20T06:22:32.578Z,0.77
2022-12-20T06:24:58.917Z,0.83
2022-12-20T06:27:25.289Z,0.78
2022-12-20T06:29:54.511Z,0.87
2022-12-20T06:32:21.023Z,0.83
2022-12-20T06:34:47.381Z,0.75
2022-12-20T06:37:13.721Z,0.80
2022-12-20T06:39:40.075Z,0.74
2022-12-20T06:42:07.152Z,0.77
2022-12-20T06:44:33.515Z,0.77
2022-12-20T06:46:59.876Z,0.77
2022-12-20T06:49:26.286Z,0.75
2022-12-20T06:51:52.675Z,0.73
2022-12-20T06:54:19.013Z,0.79
2022-12-20T06:56:45.353Z,0.72
2022-12-20T06:59:11.700Z,0.79
2022-12-20T07:01:38.176Z,0.75
2022-12-20T07:04:04.540Z,0.81
2022-12-20T07:06:30.863Z,0.85
2022-12-20T07:08:57.273Z,0.77
2022-12-20T07:11:23.642Z,0.75
2022-12-20T07:13:52.480Z,0.75
2022-12-20T07:16:18.840Z,0.74
2022-12-20T07:18:45.541Z,0.74
2022-12-20T07:21:14.202Z,0.83
2022-12-20T07:23:40.543Z,0.82
2022-12-20T07:26:06.910Z,0.88
2022-12-20T07:28:33.405Z,0.85
2022-12-20T07:30:59.731Z,0.92
2022-12-20T07:33:26.073Z,0.89
2022-12-20T07:35:54.678Z,0.93
2022-12-20T07:38:21.429Z,0.84
2022-12-20T07:40:47.771Z,0.94
2022-12-20T07:43:14.116Z,0.96
2022-12-20T07:45:40.512Z,0.92
2022-12-20T07:48:11.328Z,0.98
2022-12-20T07:50:41.633Z,1.05
2022-12-20T07:53:07.978Z,1.02
2022-12-20T07:55:34.637Z,1.04
2022-12-20T07:58:01.024Z,0.97
2022-12-20T08:00:27.438Z,1.08
2022-12-20T08:02:54.237Z,0.84
2022-12-20T08:05:20.810Z,0.93
2022-12-20T08:07:47.116Z,0.99
2022-12-20T08:10:13.465Z,0.95
2022-12-20T08:12:39.812Z,1.00
2022-12-20T08:15:06.167Z,1.00
2022-12-20T08:17:32.491Z,1.03
2022-12-20T08:20:00.615Z,0.94
2022-12-20T08:22:27.012Z,0.99
2022-12-20T08:24:53.324Z,1.17
2022-12-20T08:27:19.678Z,1.03
2022-12-20T08:29:46.052Z,0.93
2022-12-20T08:32:14.259Z,1.05
2022-12-20T08:34:40.591Z,1.05
2022-12-20T08:37:14.377Z,0.96
2022-12-20T08:39:41.216Z,0.94
2022-12-20T08:42:07.709Z,0.99
2022-12-20T08:44:34.102Z,1.03
2022-12-20T08:47:00.485Z,1.01
2022-12-20T08:49:26.814Z,0.95
2022-12-20T08:51:53.172Z,1.02
2022-12-20T08:54:19.531Z,1.19
2022-12-20T08:56:45.898Z,1.09
2022-12-20T08:59:12.326Z,1.06
2022-12-20T09:01:38.936Z,1.11
2022-12-20T09:04:05.389Z,1.14
2022-12-20T09:06:31.840Z,1.12
2022-12-20T09:09:00.303Z,1.13
2022-12-20T09:11:26.695Z,1.22
2022-12-20T09:13:53.059Z,1.31
2022-12-20T09:16:19.460Z,1.54
2022-12-20T09:18:45.844Z,1.57
2022-12-20T09:21:12.304Z,1.38
2022-12-20T09:23:38.635Z,1.30
2022-12-20T09:26:04.978Z,1.58
2022-12-20T09:28:31.313Z,1.56
2022-12-20T09:30:57.686Z,1.53
2022-12-20T09:33:24.044Z,1.42
2022-12-20T09:35:50.519Z,1.67
2022-12-20T09:38:16.888Z,1.72
2022-12-20T09:40:43.229Z,1.61
2022-12-20T09:43:09.556Z,1.87
2022-12-20T09:45:35.877Z,1.78
2022-12-20T09:48:02.234Z,1.96
2022-12-20T09:50:28.552Z,1.76
2022-12-20T09:52:54.933Z,1.70
2022-12-20T09:55:22.717Z,1.72
2022-12-20T09:57:49.157Z,1.66
2022-12-20T10:00:15.514Z,1.67
2022-12-20T10:03:00.228Z,1.75
2022-12-20T10:05:28.249Z,1.76
2022-12-20T10:07:54.963Z,1.90
2022-12-20T10:10:21.310Z,1.85
2022-12-20T10:12:47.725Z,1.85
2022-12-20T10:15:14.086Z,1.87
2022-12-20T10:17:40.429Z,1.56
2022-12-20T10:20:06.770Z,1.56
2022-12-20T10:22:33.085Z,1.54
2022-12-20T10:25:00.062Z,1.62
2022-12-20T10:27:26.392Z,1.52
2022-12-20T10:29:52.735Z,1.48
2022-12-20T10:32:19.130Z,1.61
2022-12-20T10:34:48.608Z,1.57
2022-12-20T10:37:16.195Z,1.49
2022-12-20T10:39:42.751Z,1.47
2022-12-20T10:42:09.092Z,1.49
2022-12-20T10:44:35.475Z,1.59
2022-12-20T10:47:02.097Z,1.41
2022-12-20T10:49:28.779Z,1.41
2022-12-20T10:51:55.768Z,1.44
2022-12-20T10:54:22.120Z,1.43
2022-12-20T10:56:48.431Z,1.41
2022-12-20T10:59:14.818Z,1.42
2022-12-20T11:01:42.476Z,1.42
2022-12-20T11:04:08.943Z,1.40
2022-12-20T11:06:35.887Z,1.41
2022-12-20T11:09:02.223Z,1.40
2022-12-20T11:11:28.765Z,1.31
2022-12-20T11:13:55.296Z,1.34
2022-12-20T11:16:21.659Z,1.37
2022-12-20T11:18:48.126Z,1.53
2022-12-20T11:21:18.512Z,1.43
2022-12-20T11:23:48.486Z,1.53
2022-12-20T11:26:14.827Z,1.73
2022-12-20T11:28:41.316Z,1.95
2022-12-20T11:31:07.683Z,1.92
2022-12-20T11:33:34.033Z,2.07
2022-12-20T11:36:00.354Z,2.18
2022-12-20T11:38:26.728Z,2.24
2022-12-20T11:40:53.070Z,2.03
2022-12-20T11:43:19.682Z,2.03
2022-12-20T11:45:46.049Z,1.72
2022-12-20T11:48:12.398Z,1.57
2022-12-20T11:50:38.727Z,1.66
2022-12-20T11:53:05.088Z,1.46
2022-12-20T11:55:31.401Z,1.61
2022-12-20T12:00:44.265Z,1.50
2022-12-20T12:03:10.705Z,1.57
2022-12-20T12:05:37.126Z,1.54
2022-12-20T12:08:03.501Z,1.55
2022-12-20T12:10:30.150Z,1.88
2022-12-20T12:12:56.507Z,1.81
2022-12-20T12:15:22.834Z,1.85
2022-12-20T12:17:49.199Z,2.10
2022-12-20T12:20:15.536Z,1.81
2022-12-20T12:22:41.871Z,1.81
2022-12-20T12:25:08.200Z,1.68
2022-12-20T12:27:35.216Z,1.67
2022-12-20T12:30:01.605Z,1.65
2022-12-20T12:32:28.028Z,1.54
2022-12-20T12:34:54.360Z,1.60
2022-12-20T12:37:20.695Z,1.48
2022-12-20T12:39:47.150Z,1.48
2022-12-20T12:42:13.505Z,1.44
2022-12-20T12:44:39.823Z,1.44
2022-12-20T12:47:06.132Z,1.36
2022-12-20T12:49:32.471Z,1.32
2022-12-20T12:51:58.899Z,1.43
2022-12-20T12:54:25.720Z,1.28
2022-12-20T12:56:52.091Z,1.34
2022-12-20T12:59:18.444Z,1.24
2022-12-20T13:01:44.870Z,1.21
2022-12-20T13:04:11.370Z,1.32
2022-12-20T13:06:37.737Z,1.36
2022-12-20T13:09:04.062Z,1.37
2022-12-20T13:11:30.450Z,1.44
2022-12-20T13:13:56.774Z,1.52
2022-12-20T13:16:36.019Z,1.42
2022-12-20T13:19:09.574Z,1.49
2022-12-20T13:21:36.087Z,1.48
2022-12-20T13:24:03.360Z,1.57
2022-12-20T13:26:29.693Z,1.62
2022-12-20T13:28:56.007Z,1.56
2022-12-20T13:31:22.456Z,1.52
2022-12-20T13:33:48.862Z,1.46
2022-12-20T13:36:15.165Z,1.46
2022-12-20T13:38:41.544Z,1.40
2022-12-20T13:41:07.873Z,1.32
2022-12-20T13:43:34.195Z,1.33
2022-12-20T13:46:00.587Z,1.32
2022-12-20T13:48:26.944Z,1.32
2022-12-20T13:50:56.652Z,1.28
2022-12-20T13:53:22.985Z,1.43
2022-12-20T13:55:50.290Z,1.33
2022-12-20T13:58:17.230Z,1.33
2022-12-20T14:00:43.533Z,1.38
2022-12-20T14:03:10.014Z,1.37
2022-12-20T14:05:36.436Z,1.39
2022-12-20T14:08:02.766Z,1.31
2022-12-20T14:10:29.165Z,1.26
2022-12-20T14:12:55.568Z,1.28
2022-12-20T14:15:22.273Z,1.31
2022-12-20T14:17:48.603Z,1.17
2022-12-20T14:20:18.001Z,1.24
2022-12-20T14:22:44.805Z,1.22
2022-12-20T14:25:11.124Z,1.22
2022-12-20T14:27:37.810Z,1.21
2022-12-20T14:30:04.227Z,1.26
2022-12-20T14:32:30.578Z,1.27
2022-12-20T14:34:56.900Z,1.25
2022-12-20T14:37:23.224Z,1.28
2022-12-20T14:39:49.708Z,1.29
2022-12-20T14:42:16.033Z,1.33
2022-12-20T14:44:42.559Z,1.29
2022-12-20T14:47:08.873Z,1.23
2022-12-20T14:49:35.251Z,1.25
2022-12-20T14:52:01.562Z,1.17
2022-12-20T14:55:05.681Z,1.20
2022-12-20T14:57:14.151Z,1.18
2022-12-20T14:59:40.459Z,1.20
2022-12-20T15:02:06.886Z,1.14
2022-12-20T15:04:33.343Z,1.15
2022-12-20T15:06:59.654Z,1.14
2022-12-20T15:09:26.001Z,1.12
2022-12-20T15:11:52.350Z,1.16
2022-12-20T15:14:18.661Z,1.16
2022-12-20T15:16:45.042Z,1.14
2022-12-20T15:19:11.432Z,1.19
2022-12-20T15:21:38.571Z,1.11
2022-12-20T15:24:07.984Z,1.15
2022-12-20T15:26:34.340Z,1.17
2022-12-20T15:29:00.627Z,1.11
2022-12-20T15:31:33.079Z,1.17
2022-12-20T15:34:02.386Z,1.13
2022-12-20T15:36:28.860Z,1.12
2022-12-20T15:39:12.168Z,1.13
2022-12-20T15:41:39.204Z,1.15
2022-12-20T15:44:05.506Z,1.18
2022-12-20T15:46:31.872Z,1.19
2022-12-20T15:48:58.289Z,1.24
2022-12-20T15:51:24.647Z,1.22
2022-12-20T15:53:50.973Z,1.20
2022-12-20T15:56:17.709Z,1.18
2022-12-20T15:58:44.026Z,1.27
2022-12-20T16:01:10.484Z,1.23
2022-12-20T16:03:37.060Z,1.26
2022-12-20T16:06:03.653Z,1.22
2022-12-20T16:08:30.896Z,1.24
2022-12-20T16:10:57.261Z,1.25
2022-12-20T16:13:23.732Z,1.27
2022-12-20T16:15:50.479Z,1.26
2022-12-20T16:18:16.831Z,1.28
2022-12-20T16:20:43.206Z,1.27
2022-12-20T16:23:09.516Z,1.24
2022-12-20T16:25:35.906Z,1.26
2022-12-20T16:28:02.263Z,1.22
2022-12-20T16:30:28.603Z,1.27
2022-12-20T16:32:54.978Z,1.25
2022-12-20T16:35:21.298Z,1.22
2022-12-20T16:37:48.572Z,1.32
2022-12-20T16:40:17.903Z,1.27
2022-12-20T16:42:44.288Z,1.74
2022-12-20T16:45:11.174Z,1.82
2022-12-20T16:47:37.493Z,2.02
2022-12-20T16:50:03.828Z,1.72
2022-12-20T16:52:30.684Z,1.87
2022-12-20T16:54:57.041Z,1.79
2022-12-20T16:57:23.379Z,1.78
2022-12-20T16:59:49.753Z,1.89
2022-12-20T17:02:16.522Z,1.93
2022-12-20T17:04:43.034Z,1.86
2022-12-20T17:07:09.355Z,1.93
2022-12-20T17:12:19.568Z,1.93
2022-12-20T17:14:46.419Z,1.83
2022-12-20T17:17:12.758Z,1.82
2022-12-20T17:19:39.523Z,1.64
2022-12-20T17:24:49.889Z,1.71
2022-12-20T17:27:16.391Z,1.39
2022-12-20T17:29:42.775Z,1.34
2022-12-20T17:32:09.301Z,1.30
2022-12-20T17:34:36.613Z,1.33
2022-12-20T17:37:02.972Z,1.33
2022-12-20T17:39:29.306Z,1.17
2022-12-20T17:41:55.669Z,1.25
2022-12-20T17:44:22.046Z,1.21
2022-12-20T17:46:48.415Z,1.19
2022-12-20T17:49:14.777Z,1.20
2022-12-20T17:51:41.174Z,1.19
2022-12-20T17:54:07.528Z,1.14
2022-12-20T17:56:33.834Z,1.24
2022-12-20T17:59:00.161Z,1.19
2022-12-20T18:01:26.702Z,1.17
2022-12-20T18:04:03.700Z,1.22
2022-12-20T18:06:31.277Z,1.16
2022-12-20T18:08:57.643Z,1.17
2022-12-20T18:11:24.419Z,1.12
2022-12-20T18:13:50.729Z,1.17
2022-12-20T18:16:17.075Z,1.26
2022-12-20T18:18:43.402Z,1.59
2022-12-20T18:21:09.756Z,1.77
2022-12-20T18:23:36.152Z,1.75
2022-12-20T18:26:02.511Z,1.72
2022-12-20T18:28:28.823Z,1.98
2022-12-20T18:30:55.177Z,2.05
2022-12-20T18:33:21.494Z,1.99
2022-12-20T18:35:47.809Z,1.87
2022-12-20T18:38:16.498Z,2.10
2022-12-20T18:40:42.998Z,1.98
2022-12-20T18:43:09.306Z,1.92
2022-12-20T18:45:35.703Z,1.67
2022-12-20T18:48:02.292Z,1.67
2022-12-20T18:50:28.613Z,1.75
2022-12-20T18:53:00.982Z,1.91
2022-12-20T18:55:27.742Z,1.76
2022-12-20T18:57:54.082Z,1.74
2022-12-20T19:00:20.554Z,1.78
2022-12-20T19:02:46.995Z,1.85
2022-12-20T19:05:13.406Z,1.66
2022-12-20T19:07:39.721Z,1.78
2022-12-20T19:10:06.039Z,1.73
2022-12-20T19:12:32.387Z,1.86
2022-12-20T19:14:58.695Z,1.91
2022-12-20T19:17:25.063Z,1.90
2022-12-20T19:19:51.385Z,1.91
2022-12-20T19:22:17.682Z,1.76
2022-12-20T19:24:44.129Z,1.91
2022-12-20T19:27:10.687Z,1.79
2022-12-20T19:29:37.006Z,1.87
2022-12-20T19:32:03.341Z,1.85
2022-12-20T19:34:29.785Z,1.98
2022-12-20T19:36:56.101Z,2.01
2022-12-20T19:39:23.490Z,2.00
2022-12-20T19:42:21.386Z,1.91
2022-12-20T19:44:36.227Z,1.94
2022-12-20T19:47:05.900Z,1.81
2022-12-20T19:49:32.478Z,1.88
2022-12-20T19:51:58.878Z,1.79
2022-12-20T19:54:25.249Z,1.62
2022-12-20T19:56:51.553Z,1.68
2022-12-20T19:59:18.014Z,1.66
2022-12-20T20:01:44.386Z,1.76
2022-12-20T20:04:10.879Z,1.79
2022-12-20T20:06:37.251Z,1.73
2022-12-20T20:09:03.617Z,1.66
2022-12-20T20:11:29.928Z,1.74
2022-12-20T20:13:56.258Z,1.70
2022-12-20T20:16:23.301Z,1.59
2022-12-20T20:18:49.823Z,1.82
2022-12-20T20:21:17.979Z,1.57
2022-12-20T20:23:44.295Z,1.66
2022-12-20T20:26:10.962Z,1.70
2022-12-20T20:28:44.462Z,1.66
2022-12-20T20:31:11.948Z,1.53
2022-12-20T20:33:38.430Z,1.68
2022-12-20T20:36:04.789Z,1.64
2022-12-20T20:38:31.118Z,1.61
2022-12-20T20:40:57.425Z,1.61
2022-12-20T20:43:23.751Z,1.69
2022-12-20T20:45:50.143Z,1.63
2022-12-20T20:48:16.521Z,1.64
2022-12-20T20:50:42.862Z,1.52
2022-12-20T20:53:09.218Z,1.54
2022-12-20T20:55:35.607Z,1.52
2022-12-20T20:58:01.979Z,1.48
2022-12-20T21:00:29.636Z,1.56
2022-12-20T21:02:56.565Z,1.46
2022-12-20T21:08:10.317Z,1.47
2022-12-20T21:10:36.888Z,1.55
2022-12-20T21:13:03.736Z,1.43
2022-12-20T21:15:30.098Z,1.51
2022-12-20T21:17:56.502Z,1.52
2022-12-20T21:20:26.320Z,1.44
2022-12-20T21:22:52.985Z,1.64
2022-12-20T21:25:19.339Z,1.56
2022-12-20T21:27:45.654Z,1.44
2022-12-20T21:30:12.037Z,1.53
2022-12-20T21:32:38.393Z,1.52
2022-12-20T21:35:04.740Z,1.54
2022-12-20T21:37:31.225Z,1.56
2022-12-20T21:39:57.573Z,1.52
2022-12-20T21:42:23.891Z,1.51
2022-12-20T21:44:50.225Z,1.53
2022-12-20T21:47:16.529Z,1.55
2022-12-20T21:49:42.923Z,1.57
2022-12-20T21:52:09.247Z,1.50
2022-12-20T21:54:35.588Z,1.54
2022-12-20T21:57:01.926Z,1.58
2022-12-20T21:59:28.303Z,1.55
2022-12-20T22:01:54.822Z,1.57
2022-12-20T22:04:21.383Z,1.55
2022-12-20T22:06:47.692Z,1.62
2022-12-20T22:09:14.015Z,1.56
2022-12-20T22:11:40.468Z,1.50
2022-12-20T22:14:06.836Z,1.47
2022-12-20T22:16:34.907Z,1.50
2022-12-20T22:19:01.468Z,1.48
2022-12-20T22:21:27.857Z,1.53
2022-12-20T22:23:54.191Z,1.53
2022-12-20T22:26:20.501Z,1.48
2022-12-20T22:28:49.960Z,1.39
2022-12-20T22:31:16.424Z,1.33
2022-12-20T22:33:42.788Z,1.40
2022-12-20T22:36:09.109Z,1.45
2022-12-20T22:38:35.438Z,1.45
2022-12-20T22:41:01.959Z,1.42
2022-12-20T22:43:28.301Z,1.49
2022-12-20T22:45:54.647Z,1.36
2022-12-20T22:48:21.120Z,1.46
2022-12-20T22:50:47.424Z,1.43
2022-12-20T22:53:13.745Z,1.40
2022-12-20T22:55:40.064Z,1.39
2022-12-20T22:58:06.386Z,1.47
2022-12-20T23:00:33.971Z,1.42
2022-12-20T23:03:00.552Z,1.46
2022-12-20T23:05:27.074Z,1.50
2022-12-20T23:07:53.396Z,1.45
2022-12-20T23:10:38.481Z,1.34
2022-12-20T23:13:23.604Z,1.38
2022-12-20T23:15:49.929Z,1.45
2022-12-20T23:18:16.317Z,1.41
2022-12-20T23:21:01.464Z,1.38
2022-12-20T23:23:27.790Z,1.41
2022-12-20T23:25:54.114Z,1.43
2022-12-20T23:28:20.471Z,1.40
2022-12-20T23:30:46.785Z,1.46
2022-12-20T23:33:13.217Z,1.48
2022-12-20T23:35:39.868Z,1.36
2022-12-20T23:38:06.261Z,1.41
2022-12-20T23:40:32.619Z,1.39
2022-12-20T23:42:58.936Z,1.25
2022-12-20T23:45:25.252Z,1.35
2022-12-20T23:47:51.559Z,1.35
2022-12-20T23:50:17.936Z,1.33
2022-12-20T23:52:45.517Z,1.36
2022-12-20T23:55:12.126Z,1.30
2022-12-20T23:57:38.445Z,1.32
